Time;durP1;ratioP1;P1;durP2;ratioP2;P2;SDS_P1;SDS_P2;PMS_P1;PMS_P2;Temp;Humidity;BMP_temperature;BMP_pressure;BME280_temperature;BME280_humidity;BME280_pressure;Samples;Min_cycle;Max_cycle;Signal;HPM_P1;HPM_P2
2023/12/05 00:01:33;;;;;;;11.15;7.38;;;1.20;99.90;;;;;;4935418;28;20047;-64
2023/12/05 00:03:59;;;;;;;16.23;11.50;;;1.20;99.90;;;;;;4953485;28;20031;-64
2023/12/05 00:06:24;;;;;;;17.88;12.73;;;1.20;99.90;;;;;;4951465;28;20035;-64
2023/12/05 00:08:50;;;;;;;13.93;9.68;;;1.20;99.90;;;;;;4951687;28;20298;-64
2023/12/05 00:11:16;;;;;;;17.23;11.85;;;1.20;99.90;;;;;;4935631;28;20059;-67
2023/12/05 00:13:42;;;;;;;13.27;8.70;;;1.10;99.90;;;;;;4934803;28;20047;-64
2023/12/05 00:16:08;;;;;;;17.80;12.68;;;1.00;99.90;;;;;;4935706;28;20043;-64
2023/12/05 00:18:36;;;;;;;15.15;9.90;;;1.00;99.90;;;;;;4918421;28;20121;-65
2023/12/05 00:21:02;;;;;;;10.73;7.63;;;0.90;99.90;;;;;;4935651;28;20520;-65
2023/12/05 00:23:28;;;;;;;20.35;14.15;;;0.90;99.90;;;;;;4951454;28;20275;-65
2023/12/05 00:25:54;;;;;;;16.52;10.02;;;0.90;99.90;;;;;;4951787;28;20500;-65
2023/12/05 00:28:19;;;;;;;19.58;11.75;;;0.80;99.90;;;;;;4950290;28;20074;-64
2023/12/05 00:30:45;;;;;;;18.73;10.80;;;0.80;99.90;;;;;;4951281;28;20064;-64
2023/12/05 00:33:11;;;;;;;23.20;14.13;;;0.80;99.90;;;;;;4951188;28;20733;-64
2023/12/05 00:35:37;;;;;;;19.35;10.50;;;0.70;99.90;;;;;;4934893;28;20045;-64
2023/12/05 00:38:02;;;;;;;24.38;16.05;;;0.70;99.90;;;;;;4950800;28;20049;-65
2023/12/05 00:40:29;;;;;;;17.40;10.23;;;0.60;99.90;;;;;;4952166;28;20429;-65
2023/12/05 00:42:56;;;;;;;17.73;11.23;;;0.60;99.90;;;;;;4951752;28;20046;-65
2023/12/05 00:45:22;;;;;;;18.80;12.63;;;0.60;99.90;;;;;;4952295;28;20072;-66
2023/12/05 00:47:48;;;;;;;15.95;11.25;;;0.50;99.90;;;;;;4934854;28;20042;-64
2023/12/05 00:50:14;;;;;;;20.35;12.95;;;0.50;99.90;;;;;;4950965;28;20050;-65
2023/12/05 00:52:40;;;;;;;16.92;10.30;;;0.50;99.90;;;;;;4934653;28;20062;-65
2023/12/05 00:55:06;;;;;;;22.60;14.70;;;0.50;99.90;;;;;;4951561;28;20054;-64
2023/12/05 00:57:31;;;;;;;25.10;17.05;;;0.50;99.90;;;;;;4934812;28;20038;-65
2023/12/05 00:59:57;;;;;;;24.00;16.02;;;0.40;99.90;;;;;;4951130;28;20094;-64
2023/12/05 01:02:23;;;;;;;25.52;16.95;;;0.50;99.90;;;;;;4950652;28;20039;-65
2023/12/05 01:04:49;;;;;;;28.35;17.13;;;0.40;99.90;;;;;;4934300;28;20053;-65
2023/12/05 01:07:15;;;;;;;17.42;10.27;;;0.40;99.90;;;;;;4950400;28;20663;-64
2023/12/05 01:09:41;;;;;;;20.15;14.07;;;0.40;99.90;;;;;;4950771;28;20358;-64
2023/12/05 01:12:10;;;;;;;23.55;14.27;;;0.50;99.90;;;;;;4934675;28;20059;-65
2023/12/05 01:14:35;;;;;;;14.07;8.73;;;0.40;99.90;;;;;;4950721;28;20531;-64
2023/12/05 01:17:01;;;;;;;26.13;17.05;;;0.40;99.90;;;;;;4950535;28;20254;-65
2023/12/05 01:19:27;;;;;;;17.08;10.77;;;0.50;99.90;;;;;;4918616;28;20042;-64
2023/12/05 01:21:52;;;;;;;26.35;18.23;;;0.50;99.90;;;;;;4950676;28;20334;-64
2023/12/05 01:24:18;;;;;;;22.42;15.90;;;0.40;99.90;;;;;;4950643;28;20038;-64
2023/12/05 01:26:44;;;;;;;18.15;13.18;;;0.50;99.90;;;;;;4934463;28;20229;-64
2023/12/05 01:29:09;;;;;;;17.35;10.82;;;0.40;99.90;;;;;;4948928;28;20082;-64
2023/12/05 01:31:36;;;;;;;18.58;12.45;;;0.50;99.90;;;;;;4934754;28;20288;-64
2023/12/05 01:34:02;;;;;;;26.70;17.70;;;0.50;99.90;;;;;;4950146;28;20053;-64
2023/12/05 01:36:27;;;;;;;13.88;9.77;;;0.40;99.90;;;;;;4949909;28;20046;-64
2023/12/05 01:38:54;;;;;;;24.30;16.75;;;0.60;99.90;;;;;;4950791;28;20042;-64
2023/12/05 01:41:20;;;;;;;24.58;16.92;;;0.50;99.90;;;;;;4934696;28;20661;-64
2023/12/05 01:43:45;;;;;;;25.27;18.42;;;0.50;99.90;;;;;;4948968;28;20497;-64
2023/12/05 01:46:12;;;;;;;28.85;19.88;;;0.50;99.90;;;;;;4933697;28;20145;-65
2023/12/05 01:48:40;;;;;;;26.48;18.42;;;0.50;99.90;;;;;;4950016;28;20081;-65
2023/12/05 01:51:08;;;;;;;27.02;20.30;;;0.50;99.90;;;;;;4949402;28;20771;-65
2023/12/05 01:53:37;;;;;;;24.52;16.65;;;0.50;99.90;;;;;;4934493;28;20656;-64
2023/12/05 01:56:04;;;;;;;28.58;19.25;;;0.50;99.90;;;;;;4950177;28;20116;-65
2023/12/05 01:58:31;;;;;;;25.60;15.38;;;0.50;99.90;;;;;;4949742;28;20178;-65
2023/12/05 02:00:57;;;;;;;19.77;13.80;;;0.50;99.90;;;;;;4949917;28;20281;-64
2023/12/05 02:03:23;;;;;;;15.70;10.35;;;0.50;99.90;;;;;;4933907;28;20156;-64
2023/12/05 02:05:49;;;;;;;18.73;13.25;;;0.50;99.90;;;;;;4950282;28;20051;-65
2023/12/05 02:08:18;;;;;;;25.77;17.77;;;0.60;99.90;;;;;;4950134;28;20047;-64
2023/12/05 02:10:44;;;;;;;27.52;20.50;;;0.60;99.90;;;;;;4933540;28;20408;-64
2023/12/05 02:13:10;;;;;;;26.33;18.33;;;0.50;99.90;;;;;;4950099;28;20806;-64
2023/12/05 02:15:35;;;;;;;29.95;19.50;;;0.60;99.90;;;;;;4933486;28;20049;-64
2023/12/05 02:18:05;;;;;;;14.20;9.88;;;0.40;99.90;;;;;;4950114;28;20437;-66
2023/12/05 02:20:31;;;;;;;21.83;16.48;;;0.50;99.90;;;;;;4949766;28;20896;-63
2023/12/05 02:23:27;;;;;;;24.60;17.02;;;0.50;99.90;;;;;;4928541;28;20138;-64
2023/12/05 02:26:07;;;;;;;19.38;12.18;;;0.50;99.90;;;;;;4950183;28;20054;-66
2023/12/05 02:28:34;;;;;;;22.75;15.90;;;0.60;99.90;;;;;;4950117;28;20046;-64
2023/12/05 02:30:59;;;;;;;23.48;18.05;;;0.50;99.90;;;;;;4949621;28;20215;-64
2023/12/05 02:33:25;;;;;;;19.77;12.90;;;0.50;99.90;;;;;;4933667;28;20030;-64
2023/12/05 02:36:03;;;;;;;20.70;14.45;;;0.50;99.90;;;;;;4933574;28;20130;-64
2023/12/05 02:39:12;;;;;;;25.58;16.90;;;0.50;99.90;;;;;;4952319;28;20133;-65
2023/12/05 02:41:43;;;;;;;21.85;15.35;;;0.50;99.90;;;;;;4948551;28;20058;-63
2023/12/05 02:44:14;;;;;;;24.20;17.08;;;0.50;99.90;;;;;;4920391;28;20099;-64
2023/12/05 02:46:42;;;;;;;18.92;12.85;;;0.50;99.90;;;;;;4937394;28;20114;-64
2023/12/05 02:49:09;;;;;;;23.27;15.43;;;0.60;99.90;;;;;;4937139;28;20137;-65
2023/12/05 02:51:35;;;;;;;31.00;21.75;;;0.50;99.90;;;;;;4937028;28;20118;-64
2023/12/05 02:54:03;;;;;;;31.40;22.10;;;0.50;99.90;;;;;;4953070;28;20043;-64
2023/12/05 02:56:29;;;;;;;26.38;17.85;;;0.50;99.90;;;;;;4953093;28;20118;-64
2023/12/05 02:58:55;;;;;;;20.48;12.52;;;0.50;99.90;;;;;;4953442;28;20062;-64
2023/12/05 03:01:21;;;;;;;25.73;18.17;;;0.50;99.90;;;;;;4953094;28;20252;-64
2023/12/05 03:03:46;;;;;;;28.95;19.08;;;0.50;99.90;;;;;;4953890;28;20047;-64
2023/12/05 03:06:12;;;;;;;22.63;15.23;;;0.60;99.90;;;;;;4953868;28;20047;-64
2023/12/05 03:08:38;;;;;;;24.88;16.85;;;0.40;99.90;;;;;;4937650;28;20043;-66
2023/12/05 03:11:04;;;;;;;20.77;14.75;;;0.50;99.90;;;;;;4953042;28;20528;-66
2023/12/05 03:13:29;;;;;;;28.98;19.70;;;0.50;99.90;;;;;;4921416;28;20046;-65
2023/12/05 03:15:55;;;;;;;28.60;20.02;;;0.50;99.90;;;;;;4937149;28;20403;-65
2023/12/05 03:18:21;;;;;;;27.38;19.85;;;0.50;99.90;;;;;;4952936;28;20043;-65
2023/12/05 03:20:46;;;;;;;20.90;14.43;;;0.50;99.90;;;;;;4936566;28;20488;-65
2023/12/05 03:23:16;;;;;;;29.25;19.88;;;0.40;99.90;;;;;;4936249;28;20046;-64
2023/12/05 03:25:41;;;;;;;30.58;21.88;;;0.40;99.90;;;;;;4952944;28;20603;-64
2023/12/05 03:28:07;;;;;;;26.48;18.67;;;0.50;99.90;;;;;;4952606;28;20364;-64
2023/12/05 03:30:33;;;;;;;27.63;18.17;;;0.50;99.90;;;;;;4952367;28;20521;-65
2023/12/05 03:32:58;;;;;;;20.95;15.57;;;0.40;99.90;;;;;;4936021;28;20042;-66
2023/12/05 03:35:24;;;;;;;29.10;18.65;;;0.40;99.90;;;;;;4951815;28;20236;-66
2023/12/05 03:37:50;;;;;;;27.13;19.48;;;0.50;99.90;;;;;;4952359;28;20167;-65
2023/12/05 03:40:15;;;;;;;30.83;21.15;;;0.40;99.90;;;;;;4951853;28;20136;-65
2023/12/05 03:42:41;;;;;;;29.35;19.58;;;0.50;99.90;;;;;;4936587;28;20046;-65
2023/12/05 03:45:07;;;;;;;24.95;17.73;;;0.40;99.90;;;;;;4951127;28;20620;-66
2023/12/05 03:47:33;;;;;;;23.23;14.82;;;0.50;99.90;;;;;;4952255;28;20042;-66
2023/12/05 03:49:58;;;;;;;31.33;22.50;;;0.50;99.90;;;;;;4951956;28;20441;-65
2023/12/05 03:52:24;;;;;;;36.88;26.33;;;0.40;99.90;;;;;;4951787;28;20520;-66
2023/12/05 03:54:50;;;;;;;35.58;23.48;;;0.40;99.90;;;;;;4935720;28;20299;-65
2023/12/05 03:57:15;;;;;;;34.08;23.23;;;0.50;99.90;;;;;;4935728;28;20813;-66
2023/12/05 03:59:41;;;;;;;34.00;24.50;;;0.50;99.90;;;;;;4952338;28;20038;-65
2023/12/05 04:02:07;;;;;;;19.35;11.90;;;0.50;99.90;;;;;;4935757;28;20465;-66
2023/12/05 04:04:32;;;;;;;36.80;23.98;;;0.30;99.90;;;;;;4951925;28;20133;-66
2023/12/05 04:06:58;;;;;;;31.70;21.50;;;0.30;99.90;;;;;;4935720;28;20046;-65
2023/12/05 04:09:24;;;;;;;36.50;23.17;;;0.30;99.90;;;;;;4951039;28;20398;-66
2023/12/05 04:11:49;;;;;;;39.63;26.33;;;0.40;99.90;;;;;;4951130;28;20138;-65
2023/12/05 04:14:15;;;;;;;42.03;27.40;;;0.50;99.90;;;;;;4952136;28;20057;-65
2023/12/05 04:16:41;;;;;;;43.00;27.02;;;0.40;99.90;;;;;;4935353;28;20510;-66
2023/12/05 04:19:07;;;;;;;42.90;26.92;;;0.30;99.90;;;;;;4935218;28;20047;-65
2023/12/05 04:21:32;;;;;;;43.55;27.15;;;0.40;99.90;;;;;;4934891;28;20038;-65
2023/12/05 04:23:59;;;;;;;33.78;19.42;;;0.40;99.90;;;;;;4935333;28;20039;-65
2023/12/05 04:26:25;;;;;;;41.13;25.77;;;0.20;99.90;;;;;;4950894;28;20042;-65
2023/12/05 04:28:51;;;;;;;34.20;20.88;;;0.30;99.90;;;;;;4935652;28;20042;-65
2023/12/05 04:31:16;;;;;;;48.92;29.42;;;0.40;99.90;;;;;;4935185;28;20059;-66
2023/12/05 04:33:43;;;;;;;50.20;29.05;;;0.30;99.90;;;;;;4952854;28;20085;-65
2023/12/05 04:36:09;;;;;;;46.35;25.95;;;0.30;99.90;;;;;;4951766;28;20042;-66
2023/12/05 04:38:36;;;;;;;46.22;25.63;;;0.10;99.90;;;;;;4934548;28;20119;-65
2023/12/05 04:41:03;;;;;;;48.30;29.23;;;0.30;99.90;;;;;;4950997;28;20778;-65
2023/12/05 04:43:30;;;;;;;48.55;27.25;;;0.10;99.90;;;;;;4951385;28;20126;-65
2023/12/05 04:45:57;;;;;;;44.95;27.52;;;0.30;99.90;;;;;;4934186;28;20557;-65
2023/12/05 04:48:22;;;;;;;52.40;30.02;;;0.20;99.90;;;;;;4951068;28;20557;-66
2023/12/05 04:50:48;;;;;;;57.85;32.92;;;0.10;99.90;;;;;;4934706;28;20050;-65
2023/12/05 04:53:14;;;;;;;47.05;29.30;;;0.10;99.90;;;;;;4934558;28;20042;-65
2023/12/05 04:55:40;;;;;;;38.90;25.25;;;0.10;99.90;;;;;;4934789;28;20379;-65
2023/12/05 04:58:05;;;;;;;46.53;29.88;;;0.10;99.90;;;;;;4951308;28;20070;-66
2023/12/05 05:00:32;;;;;;;43.70;27.27;;;0.10;99.90;;;;;;4934806;28;20147;-65
2023/12/05 05:02:58;;;;;;;43.63;24.27;;;0.10;99.90;;;;;;4950294;28;20320;-65
2023/12/05 05:05:23;;;;;;;41.58;25.48;;;0.10;99.90;;;;;;4950837;28;20161;-65
2023/12/05 05:07:49;;;;;;;34.65;21.77;;;0.10;99.90;;;;;;4921462;28;20053;-65
2023/12/05 05:10:15;;;;;;;41.90;27.38;;;0.10;99.90;;;;;;4950671;28;20043;-65
2023/12/05 05:12:40;;;;;;;46.45;29.88;;;0.30;99.90;;;;;;4918939;28;20096;-65
2023/12/05 05:15:07;;;;;;;43.95;26.95;;;0.10;99.90;;;;;;4918783;28;20051;-65
2023/12/05 05:17:32;;;;;;;48.03;30.88;;;0.20;99.90;;;;;;4934434;28;20038;-66
2023/12/05 05:19:58;;;;;;;46.45;28.33;;;0.10;99.90;;;;;;4965939;28;20161;-66
2023/12/05 05:22:24;;;;;;;49.22;32.05;;;0.10;99.90;;;;;;4934803;28;20038;-65
2023/12/05 05:24:49;;;;;;;46.72;28.17;;;0.30;99.90;;;;;;4934230;28;20113;-65
2023/12/05 05:27:15;;;;;;;41.13;25.02;;;0.20;99.90;;;;;;4919038;28;20527;-65
2023/12/05 05:29:41;;;;;;;46.45;29.65;;;0.10;99.90;;;;;;4934557;28;20308;-65
2023/12/05 05:32:07;;;;;;;43.38;26.92;;;0.30;99.90;;;;;;4949447;28;20303;-65
2023/12/05 05:34:32;;;;;;;40.63;24.73;;;0.30;99.90;;;;;;4934325;28;20049;-66
2023/12/05 05:36:58;;;;;;;34.00;21.65;;;0.20;99.90;;;;;;4934269;28;20335;-65
2023/12/05 05:39:24;;;;;;;40.63;24.00;;;0.20;99.90;;;;;;4933918;28;20105;-65
2023/12/05 05:41:50;;;;;;;44.92;29.35;;;0.00;99.90;;;;;;4950264;28;20053;-65
2023/12/05 05:44:16;;;;;;;52.17;31.45;;;0.10;99.90;;;;;;4949135;28;20058;-65
2023/12/05 05:46:41;;;;;;;43.13;25.10;;;0.30;99.90;;;;;;4933595;28;20053;-65
2023/12/05 05:49:07;;;;;;;46.08;28.02;;;0.10;99.90;;;;;;4949639;28;20130;-65
2023/12/05 05:51:33;;;;;;;41.30;25.27;;;0.00;99.90;;;;;;4949695;28;20038;-66
2023/12/05 05:53:59;;;;;;;50.70;28.73;;;0.20;99.90;;;;;;4933955;28;20126;-65
2023/12/05 05:56:24;;;;;;;35.25;21.15;;;0.20;99.90;;;;;;4950389;28;20522;-65
2023/12/05 05:58:50;;;;;;;36.38;21.67;;;0.30;99.90;;;;;;4934255;28;20559;-65
2023/12/05 06:01:16;;;;;;;46.90;27.83;;;0.10;99.90;;;;;;4950118;28;20169;-65
2023/12/05 06:03:42;;;;;;;37.70;23.25;;;0.30;99.90;;;;;;4949965;28;20047;-65
2023/12/05 06:06:08;;;;;;;39.97;22.50;;;0.10;99.90;;;;;;4949816;28;20471;-64
2023/12/05 06:08:35;;;;;;;49.85;29.80;;;0.20;99.90;;;;;;4950581;28;20440;-66
2023/12/05 06:11:00;;;;;;;55.60;33.53;;;0.10;99.90;;;;;;4933067;28;20054;-64
2023/12/05 06:13:26;;;;;;;40.13;23.55;;;0.20;99.90;;;;;;4953218;28;20532;-66
2023/12/05 06:15:52;;;;;;;45.90;30.45;;;0.00;99.90;;;;;;4954325;28;20035;-64
2023/12/05 06:18:18;;;;;;;51.75;30.30;;;0.10;99.90;;;;;;4955219;28;20183;-65
2023/12/05 06:20:44;;;;;;;44.88;26.55;;;0.30;99.90;;;;;;4954527;28;20461;-65
2023/12/05 06:23:10;;;;;;;50.70;28.92;;;0.30;99.90;;;;;;4953799;28;20578;-64
2023/12/05 06:25:36;;;;;;;51.50;30.17;;;0.10;99.90;;;;;;4937941;28;20153;-64
2023/12/05 06:28:02;;;;;;;48.38;26.00;;;0.20;99.90;;;;;;4953564;28;20322;-65
2023/12/05 06:30:28;;;;;;;54.58;32.67;;;0.30;99.90;;;;;;4969551;28;20097;-64
2023/12/05 06:32:54;;;;;;;57.72;30.08;;;0.20;99.90;;;;;;4953003;28;20106;-65
2023/12/05 06:35:19;;;;;;;37.95;20.65;;;0.10;99.90;;;;;;4951782;28;20049;-64
2023/12/05 06:37:45;;;;;;;38.83;22.45;;;0.10;99.90;;;;;;4951607;28;20232;-64
2023/12/05 06:40:11;;;;;;;47.53;26.77;;;0.10;99.90;;;;;;4937071;28;20085;-64
2023/12/05 06:42:37;;;;;;;53.50;30.40;;;0.10;99.90;;;;;;4936395;28;20051;-65
2023/12/05 06:45:03;;;;;;;57.35;31.65;;;0.20;99.90;;;;;;4953017;28;20275;-65
2023/12/05 06:47:31;;;;;;;35.85;19.10;;;0.20;99.90;;;;;;4938246;28;20173;-64
2023/12/05 06:50:01;;;;;;;57.47;32.80;;;0.20;99.90;;;;;;4956349;28;20106;-64
2023/12/05 06:52:27;;;;;;;62.92;35.92;;;0.20;99.90;;;;;;4953938;28;20046;-65
2023/12/05 06:54:52;;;;;;;57.83;30.13;;;0.00;99.90;;;;;;4935458;28;20034;-64
2023/12/05 06:57:18;;;;;;;44.67;24.85;;;0.10;99.90;;;;;;4919707;28;20153;-64
2023/12/05 06:59:44;;;;;;;48.08;26.83;;;0.10;99.90;;;;;;4951308;28;20034;-64
2023/12/05 07:02:10;;;;;;;54.42;31.08;;;0.20;99.90;;;;;;4951507;28;20078;-64
2023/12/05 07:04:35;;;;;;;61.42;33.88;;;0.10;99.90;;;;;;4938369;28;20427;-64
2023/12/05 07:07:01;;;;;;;62.10;34.58;;;0.00;99.90;;;;;;4935525;28;20463;-64
2023/12/05 07:09:27;;;;;;;58.53;34.80;;;0.20;99.90;;;;;;4953828;28;20043;-64
2023/12/05 07:11:53;;;;;;;48.15;27.95;;;0.20;99.90;;;;;;4936725;28;20138;-65
2023/12/05 07:14:19;;;;;;;54.38;28.77;;;0.00;99.90;;;;;;4953486;28;20158;-65
2023/12/05 07:16:45;;;;;;;54.92;30.98;;;0.20;99.90;;;;;;4937144;28;20053;-64
2023/12/05 07:19:11;;;;;;;48.25;27.35;;;-0.10;99.90;;;;;;4952629;28;20061;-64
2023/12/05 07:21:36;;;;;;;63.63;34.85;;;0.20;99.90;;;;;;4936433;28;20043;-64
2023/12/05 07:24:02;;;;;;;50.72;29.92;;;-0.10;99.90;;;;;;4952826;28;20560;-64
2023/12/05 07:26:28;;;;;;;52.70;31.70;;;0.20;99.90;;;;;;4936864;28;20039;-65
2023/12/05 07:28:54;;;;;;;57.70;32.90;;;0.00;99.90;;;;;;4954543;28;20038;-64
2023/12/05 07:31:20;;;;;;;53.75;28.95;;;0.10;99.90;;;;;;4953571;28;20043;-64
2023/12/05 07:33:46;;;;;;;57.65;33.25;;;0.20;99.90;;;;;;4952968;28;20348;-64
2023/12/05 07:36:13;;;;;;;40.67;22.58;;;0.10;99.90;;;;;;4920431;28;20046;-65
2023/12/05 07:38:39;;;;;;;50.65;29.90;;;0.00;99.90;;;;;;4936201;28;20249;-64
2023/12/05 07:41:04;;;;;;;51.88;28.48;;;-0.10;99.90;;;;;;4935848;28;20411;-65
2023/12/05 07:43:30;;;;;;;50.08;29.02;;;0.10;99.90;;;;;;4951654;28;20050;-64
2023/12/05 07:45:56;;;;;;;47.35;28.40;;;0.10;99.90;;;;;;4952026;28;20053;-64
2023/12/05 07:48:22;;;;;;;56.72;33.50;;;0.00;99.90;;;;;;4951416;28;20050;-65
2023/12/05 07:50:48;;;;;;;52.35;30.52;;;0.10;99.90;;;;;;4934803;28;20108;-64
2023/12/05 07:53:14;;;;;;;49.63;33.13;;;0.10;99.90;;;;;;4951846;28;20059;-65
2023/12/05 07:55:40;;;;;;;54.15;31.77;;;0.20;99.90;;;;;;4936465;28;20163;-64
2023/12/05 07:58:05;;;;;;;46.97;29.27;;;0.10;99.90;;;;;;4952697;28;20141;-64
2023/12/05 08:00:31;;;;;;;53.92;34.45;;;0.00;99.90;;;;;;4920320;28;20043;-64
2023/12/05 08:02:57;;;;;;;46.90;28.92;;;-0.10;99.90;;;;;;4935964;28;20081;-65
2023/12/05 08:05:23;;;;;;;41.22;25.92;;;-0.10;99.90;;;;;;4935956;28;20035;-64
2023/12/05 08:07:49;;;;;;;52.33;32.42;;;0.20;99.90;;;;;;4952279;28;20046;-64
2023/12/05 08:10:15;;;;;;;50.22;31.90;;;0.00;99.90;;;;;;4952021;28;20130;-64
2023/12/05 08:12:42;;;;;;;51.50;34.00;;;0.10;99.90;;;;;;4935979;28;20369;-64
2023/12/05 08:15:08;;;;;;;48.25;30.25;;;-0.10;99.90;;;;;;4952440;28;20246;-64
2023/12/05 08:17:35;;;;;;;43.92;27.35;;;0.00;99.90;;;;;;4935929;28;20138;-66
2023/12/05 08:20:00;;;;;;;51.00;31.23;;;0.00;99.90;;;;;;4952410;28;20182;-64
2023/12/05 08:22:26;;;;;;;45.33;28.38;;;0.00;99.90;;;;;;4935520;28;20552;-64
2023/12/05 08:24:52;;;;;;;28.85;18.73;;;-0.10;99.90;;;;;;4936184;28;20046;-64
2023/12/05 08:27:18;;;;;;;39.58;24.88;;;0.10;99.90;;;;;;4952140;28;20042;-64
2023/12/05 08:29:43;;;;;;;44.97;28.75;;;0.00;99.90;;;;;;4951761;28;20051;-65
2023/12/05 08:32:10;;;;;;;27.58;17.23;;;0.00;99.90;;;;;;4919718;28;20822;-64
2023/12/05 08:34:36;;;;;;;30.80;19.13;;;0.00;99.90;;;;;;4921078;28;20253;-65
2023/12/05 08:37:02;;;;;;;37.42;24.80;;;0.20;99.90;;;;;;4951520;28;20299;-64
2023/12/05 08:39:28;;;;;;;31.42;19.23;;;0.20;99.90;;;;;;4953053;28;20571;-64
2023/12/05 08:41:54;;;;;;;43.25;28.73;;;0.10;99.90;;;;;;4951789;28;20138;-65
2023/12/05 08:44:22;;;;;;;38.05;26.40;;;0.10;99.90;;;;;;4935956;28;20077;-64
2023/12/05 08:46:48;;;;;;;34.30;22.50;;;0.30;99.90;;;;;;4935381;28;20053;-64
2023/12/05 08:49:13;;;;;;;45.17;28.63;;;0.20;99.90;;;;;;4951014;28;20050;-64
2023/12/05 08:51:39;;;;;;;26.17;17.30;;;0.10;99.90;;;;;;4951317;28;20046;-65
2023/12/05 08:54:05;;;;;;;39.92;25.50;;;0.30;99.90;;;;;;4950857;28;20047;-65
2023/12/05 08:56:32;;;;;;;38.00;25.35;;;0.30;99.90;;;;;;4951275;28;20039;-64
2023/12/05 08:58:57;;;;;;;43.10;29.50;;;0.10;99.90;;;;;;4935804;28;20050;-64
2023/12/05 09:01:23;;;;;;;43.17;29.10;;;0.20;99.90;;;;;;4934832;28;20050;-66
2023/12/05 09:03:54;;;;;;;35.67;24.40;;;0.30;99.90;;;;;;4951099;28;20294;-64
2023/12/05 09:06:19;;;;;;;38.33;25.08;;;0.30;99.90;;;;;;4950797;28;20045;-65
2023/12/05 09:08:45;;;;;;;42.40;28.92;;;0.40;99.90;;;;;;4966642;28;20039;-64
2023/12/05 09:11:12;;;;;;;38.72;24.75;;;0.30;99.90;;;;;;4935215;28;20291;-66
2023/12/05 09:13:38;;;;;;;39.72;27.48;;;0.30;99.90;;;;;;4935226;28;20035;-65
2023/12/05 09:16:05;;;;;;;42.58;29.33;;;0.40;99.90;;;;;;4934963;28;20053;-64
2023/12/05 09:18:31;;;;;;;38.63;25.00;;;0.50;99.90;;;;;;4934795;28;20050;-64
2023/12/05 09:20:57;;;;;;;38.10;25.45;;;0.40;99.90;;;;;;4934861;28;20081;-65
2023/12/05 09:23:24;;;;;;;39.45;26.20;;;0.40;99.90;;;;;;4951190;28;20143;-65
2023/12/05 09:25:49;;;;;;;47.72;31.88;;;0.60;99.90;;;;;;4935526;28;20586;-65
2023/12/05 09:28:15;;;;;;;42.60;29.95;;;0.40;99.90;;;;;;4934895;28;20042;-64
2023/12/05 09:30:41;;;;;;;41.95;27.27;;;0.50;99.90;;;;;;4950349;28;20050;-65
2023/12/05 09:33:06;;;;;;;44.03;30.33;;;0.70;99.90;;;;;;4934718;28;20043;-65
2023/12/05 09:35:32;;;;;;;38.55;26.48;;;0.60;99.90;;;;;;4934700;28;20207;-64
2023/12/05 09:37:58;;;;;;;44.78;31.90;;;0.50;99.90;;;;;;4934716;28;20371;-65
2023/12/05 09:40:24;;;;;;;43.90;29.25;;;0.70;99.90;;;;;;4934749;28;20298;-64
2023/12/05 09:42:51;;;;;;;31.95;22.17;;;0.80;99.90;;;;;;4950906;28;20034;-65
2023/12/05 09:45:18;;;;;;;37.80;27.38;;;0.70;99.90;;;;;;4982342;28;20054;-65
2023/12/05 09:47:52;;;;;;;44.28;29.52;;;0.70;99.90;;;;;;4936092;28;20054;-65
2023/12/05 09:50:19;;;;;;;38.10;25.10;;;0.70;99.90;;;;;;4983053;28;20822;-65
2023/12/05 09:52:45;;;;;;;42.78;27.95;;;0.70;99.90;;;;;;4934485;28;20612;-66
2023/12/05 09:55:11;;;;;;;41.33;29.10;;;0.70;99.90;;;;;;4950704;28;20042;-64
2023/12/05 09:57:38;;;;;;;38.10;27.20;;;0.70;99.90;;;;;;4934347;28;20543;-67
2023/12/05 10:00:05;;;;;;;39.00;24.10;;;0.60;99.90;;;;;;4950139;28;20126;-64
2023/12/05 10:02:32;;;;;;;43.90;31.05;;;0.60;99.90;;;;;;4950443;28;20078;-64
2023/12/05 10:05:05;;;;;;;45.65;30.60;;;0.80;99.90;;;;;;4933817;28;20308;-64
2023/12/05 10:07:30;;;;;;;35.33;23.67;;;0.70;99.90;;;;;;4934923;28;20050;-65
2023/12/05 10:09:57;;;;;;;40.50;28.63;;;0.90;99.90;;;;;;4950086;28;20519;-65
2023/12/05 10:12:23;;;;;;;42.08;29.50;;;0.80;99.90;;;;;;4949820;28;20082;-64
2023/12/05 10:14:51;;;;;;;41.90;27.17;;;0.90;99.90;;;;;;4950254;28;20540;-65
2023/12/05 10:17:16;;;;;;;33.35;22.35;;;1.00;99.90;;;;;;4934262;28;20034;-65
2023/12/05 10:19:42;;;;;;;42.90;29.98;;;1.00;99.90;;;;;;4934276;28;20445;-65
2023/12/05 10:22:09;;;;;;;34.95;23.35;;;1.00;99.90;;;;;;4935214;28;20133;-65
2023/12/05 10:24:39;;;;;;;44.58;30.17;;;1.10;99.90;;;;;;4965893;28;20054;-65
2023/12/05 10:27:07;;;;;;;42.50;28.75;;;1.00;99.90;;;;;;4918152;28;20623;-65
2023/12/05 10:29:42;;;;;;;35.90;23.48;;;0.90;99.90;;;;;;4949966;28;20102;-68
2023/12/05 10:32:10;;;;;;;25.30;16.83;;;1.00;99.90;;;;;;4940981;28;20047;-65
2023/12/05 10:34:56;;;;;;;39.03;27.50;;;0.80;99.90;;;;;;4937086;28;20073;-65
2023/12/05 10:37:27;;;;;;;41.53;29.17;;;1.00;99.90;;;;;;4951432;28;20054;-65
2023/12/05 10:39:55;;;;;;;38.05;25.90;;;1.00;99.90;;;;;;4949490;28;20089;-65
2023/12/05 10:42:26;;;;;;;39.20;27.42;;;0.90;99.90;;;;;;4935177;28;20039;-65
2023/12/05 10:44:51;;;;;;;44.20;30.63;;;1.00;99.90;;;;;;4982661;28;20413;-65
2023/12/05 10:47:17;;;;;;;36.42;24.90;;;1.00;99.90;;;;;;4934969;28;20043;-65
2023/12/05 10:49:43;;;;;;;40.88;28.30;;;1.10;99.90;;;;;;4934470;28;20039;-65
2023/12/05 10:52:12;;;;;;;36.10;25.08;;;1.10;99.90;;;;;;4934693;28;20599;-65
2023/12/05 10:54:39;;;;;;;35.65;24.10;;;1.00;99.90;;;;;;4927454;28;20050;-65
2023/12/05 10:57:09;;;;;;;44.95;30.13;;;1.00;99.90;;;;;;4935069;28;20047;-65
2023/12/05 10:59:36;;;;;;;38.05;24.88;;;0.90;99.90;;;;;;4937407;28;20082;-65
2023/12/05 11:02:22;;;;;;;39.35;25.58;;;1.00;99.90;;;;;;4953361;28;20081;-65
2023/12/05 11:04:50;;;;;;;33.03;21.48;;;0.90;99.90;;;;;;4953697;28;20234;-65
2023/12/05 11:07:16;;;;;;;34.30;23.85;;;0.80;99.90;;;;;;4953828;28;20055;-66
2023/12/05 11:09:42;;;;;;;38.83;27.65;;;0.70;99.90;;;;;;4953301;28;20421;-65
2023/12/05 11:12:09;;;;;;;44.10;30.08;;;0.70;99.90;;;;;;4936690;28;20425;-64
2023/12/05 11:14:40;;;;;;;46.97;33.38;;;0.60;99.90;;;;;;4953621;28;20690;-65
2023/12/05 11:17:12;;;;;;;35.83;24.73;;;0.70;99.90;;;;;;4960955;28;20144;-65
2023/12/05 11:20:13;;;;;;;28.30;20.83;;;0.70;99.90;;;;;;4954159;28;20061;-65
2023/12/05 11:22:58;;;;;;;34.08;21.40;;;0.60;99.90;;;;;;4952787;28;20038;-65
2023/12/05 11:25:52;;;;;;;46.58;30.58;;;0.60;99.90;;;;;;4937316;28;20748;-66
2023/12/05 11:28:46;;;;;;;42.63;28.30;;;0.60;99.90;;;;;;4953746;28;20142;-66
2023/12/05 11:31:22;;;;;;;42.20;26.48;;;0.50;99.90;;;;;;4952705;28;20413;-65
2023/12/05 11:34:10;;;;;;;43.55;30.50;;;0.50;99.90;;;;;;4953293;28;20100;-65
2023/12/05 11:37:21;;;;;;;42.92;29.13;;;0.50;99.90;;;;;;4952605;28;20042;-65
2023/12/05 11:39:47;;;;;;;46.55;31.48;;;0.50;99.90;;;;;;4938221;28;20188;-65
2023/12/05 11:42:14;;;;;;;44.85;30.55;;;0.60;99.90;;;;;;4937092;28;20046;-66
2023/12/05 11:44:41;;;;;;;47.55;30.08;;;0.60;99.90;;;;;;4906975;28;20552;-65
2023/12/05 11:47:24;;;;;;;38.00;24.67;;;0.60;99.90;;;;;;4937140;28;20616;-67
2023/12/05 11:49:59;;;;;;;39.67;27.52;;;0.60;99.90;;;;;;4937054;28;20662;-67
2023/12/05 11:52:39;;;;;;;39.10;25.10;;;0.60;99.90;;;;;;4952488;28;20046;-64
2023/12/05 11:55:05;;;;;;;38.65;24.05;;;0.60;99.90;;;;;;4952785;28;20045;-64
2023/12/05 11:57:32;;;;;;;48.60;31.98;;;0.60;99.90;;;;;;4952355;28;20283;-64
2023/12/05 11:59:59;;;;;;;50.70;32.70;;;0.70;99.90;;;;;;4937166;28;20042;-65
2023/12/05 12:02:41;;;;;;;42.88;27.50;;;0.70;99.90;;;;;;4952455;28;20157;-65
2023/12/05 12:05:09;;;;;;;37.30;24.85;;;0.60;99.90;;;;;;4952710;28;20050;-65
2023/12/05 12:07:58;;;;;;;45.22;30.50;;;0.60;99.90;;;;;;4952015;28;20061;-66
2023/12/05 12:10:26;;;;;;;47.83;31.27;;;0.60;99.90;;;;;;4950854;28;20086;-65
2023/12/05 12:12:52;;;;;;;47.45;29.83;;;0.50;99.90;;;;;;4951882;28;20061;-65
2023/12/05 12:15:21;;;;;;;45.70;29.30;;;0.60;99.90;;;;;;4952282;28;20046;-65
2023/12/05 12:17:48;;;;;;;45.83;29.02;;;0.50;99.90;;;;;;4951996;28;20280;-65
2023/12/05 12:20:18;;;;;;;46.53;31.65;;;0.60;99.90;;;;;;4936264;28;20046;-65
2023/12/05 12:22:49;;;;;;;46.35;31.27;;;0.60;99.90;;;;;;4935599;28;20050;-65
2023/12/05 12:25:16;;;;;;;49.30;33.17;;;0.60;99.90;;;;;;4951732;28;20038;-65
2023/12/05 12:27:43;;;;;;;47.05;30.15;;;0.60;99.90;;;;;;4936261;28;20046;-65
2023/12/05 12:30:13;;;;;;;36.53;23.23;;;0.60;99.90;;;;;;4951922;28;20206;-65
2023/12/05 12:32:56;;;;;;;33.20;19.88;;;0.60;99.90;;;;;;4935785;28;20105;-65
2023/12/05 12:35:23;;;;;;;44.40;28.73;;;0.50;99.90;;;;;;4925800;28;20041;-65
2023/12/05 12:37:52;;;;;;;51.83;34.90;;;0.60;99.90;;;;;;4935407;28;20082;-66